sensor_id;sensor_type;location;lat;lon;timestamp;P1;durP1;ratioP1;P2;durP2;ratioP2
8819;SDS011;4446;50.876;4.736;2022-09-09T00:00:17;2.78;;;1.90;;
8819;SDS011;4446;50.876;4.736;2022-09-09T00:02:49;3.67;;;2.08;;
8819;SDS011;4446;50.876;4.736;2022-09-09T00:05:27;2.13;;;1.92;;
8819;SDS011;4446;50.876;4.736;2022-09-09T00:07:59;2.30;;;1.85;;
8819;SDS011;4446;50.876;4.736;2022-09-09T00:10:29;3.45;;;1.98;;
8819;SDS011;4446;50.876;4.736;2022-09-09T00:13:01;3.60;;;1.80;;
8819;SDS011;4446;50.876;4.736;2022-09-09T00:15:43;2.80;;;1.80;;
8819;SDS011;4446;50.876;4.736;2022-09-09T00:18:20;1.95;;;1.75;;
8819;SDS011;4446;50.876;4.736;2022-09-09T00:20:53;2.20;;;1.70;;
8819;SDS011;4446;50.876;4.736;2022-09-09T00:23:24;2.55;;;1.80;;
8819;SDS011;4446;50.876;4.736;2022-09-09T00:25:56;3.95;;;1.83;;
8819;SDS011;4446;50.876;4.736;2022-09-09T00:28:28;3.83;;;2.05;;
8819;SDS011;4446;50.876;4.736;2022-09-09T00:30:59;4.07;;;1.60;;
8819;SDS011;4446;50.876;4.736;2022-09-09T00:33:35;3.72;;;1.92;;
8819;SDS011;4446;50.876;4.736;2022-09-09T00:36:07;4.78;;;2.13;;
8819;SDS011;4446;50.876;4.736;2022-09-09T00:38:41;4.18;;;2.13;;
8819;SDS011;4446;50.876;4.736;2022-09-09T00:41:13;2.58;;;1.90;;
8819;SDS011;4446;50.876;4.736;2022-09-09T00:43:46;4.10;;;1.83;;
8819;SDS011;4446;50.876;4.736;2022-09-09T00:46:34;2.95;;;2.00;;
8819;SDS011;4446;50.876;4.736;2022-09-09T00:49:25;4.50;;;2.00;;
8819;SDS011;4446;50.876;4.736;2022-09-09T00:52:05;5.63;;;2.08;;
8819;SDS011;4446;50.876;4.736;2022-09-09T00:54:45;4.43;;;2.20;;
8819;SDS011;4446;50.876;4.736;2022-09-09T00:57:22;3.55;;;1.90;;
8819;SDS011;4446;50.876;4.736;2022-09-09T00:59:56;2.40;;;1.90;;
8819;SDS011;4446;50.876;4.736;2022-09-09T01:02:45;4.65;;;2.00;;
8819;SDS011;4446;50.876;4.736;2022-09-09T01:05:22;4.15;;;2.72;;
8819;SDS011;4446;50.876;4.736;2022-09-09T01:08:02;6.85;;;2.40;;
8819;SDS011;4446;50.876;4.736;2022-09-09T01:10:36;5.63;;;2.15;;
8819;SDS011;4446;50.876;4.736;2022-09-09T01:13:11;4.20;;;2.10;;
8819;SDS011;4446;50.876;4.736;2022-09-09T01:15:43;2.30;;;2.10;;
8819;SDS011;4446;50.876;4.736;2022-09-09T01:18:13;3.25;;;2.25;;
8819;SDS011;4446;50.876;4.736;2022-09-09T01:20:46;3.13;;;2.05;;
8819;SDS011;4446;50.876;4.736;2022-09-09T01:23:28;4.95;;;2.10;;
8819;SDS011;4446;50.876;4.736;2022-09-09T01:26:14;4.97;;;2.10;;
8819;SDS011;4446;50.876;4.736;2022-09-09T01:28:44;5.40;;;2.17;;
8819;SDS011;4446;50.876;4.736;2022-09-09T01:31:15;5.10;;;2.22;;
8819;SDS011;4446;50.876;4.736;2022-09-09T01:33:44;4.70;;;2.20;;
8819;SDS011;4446;50.876;4.736;2022-09-09T01:36:12;3.17;;;2.15;;
8819;SDS011;4446;50.876;4.736;2022-09-09T01:38:46;3.10;;;2.28;;
8819;SDS011;4446;50.876;4.736;2022-09-09T01:41:14;5.78;;;2.40;;
8819;SDS011;4446;50.876;4.736;2022-09-09T01:43:41;3.20;;;2.20;;
8819;SDS011;4446;50.876;4.736;2022-09-09T01:46:09;4.93;;;2.25;;
8819;SDS011;4446;50.876;4.736;2022-09-09T01:48:37;6.22;;;2.80;;
8819;SDS011;4446;50.876;4.736;2022-09-09T01:51:05;7.60;;;2.30;;
8819;SDS011;4446;50.876;4.736;2022-09-09T01:53:31;3.28;;;2.17;;
8819;SDS011;4446;50.876;4.736;2022-09-09T01:56:02;4.45;;;2.40;;
8819;SDS011;4446;50.876;4.736;2022-09-09T01:58:41;7.53;;;2.42;;
8819;SDS011;4446;50.876;4.736;2022-09-09T02:01:22;4.43;;;2.30;;
8819;SDS011;4446;50.876;4.736;2022-09-09T02:03:56;6.03;;;2.45;;
8819;SDS011;4446;50.876;4.736;2022-09-09T02:06:27;5.53;;;2.55;;
8819;SDS011;4446;50.876;4.736;2022-09-09T02:08:58;7.45;;;2.33;;
8819;SDS011;4446;50.876;4.736;2022-09-09T02:11:28;6.10;;;2.55;;
8819;SDS011;4446;50.876;4.736;2022-09-09T02:13:59;7.60;;;2.60;;
8819;SDS011;4446;50.876;4.736;2022-09-09T02:16:29;4.50;;;2.50;;
8819;SDS011;4446;50.876;4.736;2022-09-09T02:19:01;5.20;;;2.22;;
8819;SDS011;4446;50.876;4.736;2022-09-09T02:21:32;3.72;;;2.20;;
8819;SDS011;4446;50.876;4.736;2022-09-09T02:24:02;6.82;;;2.58;;
8819;SDS011;4446;50.876;4.736;2022-09-09T02:26:33;5.05;;;2.38;;
8819;SDS011;4446;50.876;4.736;2022-09-09T02:29:04;6.43;;;2.55;;
8819;SDS011;4446;50.876;4.736;2022-09-09T02:31:36;5.00;;;2.40;;
8819;SDS011;4446;50.876;4.736;2022-09-09T02:34:04;5.53;;;2.42;;
8819;SDS011;4446;50.876;4.736;2022-09-09T02:36:35;5.72;;;2.95;;
8819;SDS011;4446;50.876;4.736;2022-09-09T02:39:07;5.72;;;2.58;;
8819;SDS011;4446;50.876;4.736;2022-09-09T02:41:35;3.65;;;2.30;;
8819;SDS011;4446;50.876;4.736;2022-09-09T02:44:08;4.53;;;2.42;;
8819;SDS011;4446;50.876;4.736;2022-09-09T02:46:41;5.88;;;2.10;;
8819;SDS011;4446;50.876;4.736;2022-09-09T02:49:36;7.15;;;2.90;;
8819;SDS011;4446;50.876;4.736;2022-09-09T02:52:12;7.55;;;2.65;;
8819;SDS011;4446;50.876;4.736;2022-09-09T02:54:41;6.03;;;2.45;;
8819;SDS011;4446;50.876;4.736;2022-09-09T02:57:10;6.72;;;2.80;;
8819;SDS011;4446;50.876;4.736;2022-09-09T02:59:40;8.13;;;2.85;;
8819;SDS011;4446;50.876;4.736;2022-09-09T03:02:09;8.32;;;3.03;;
8819;SDS011;4446;50.876;4.736;2022-09-09T03:04:36;5.30;;;2.40;;
8819;SDS011;4446;50.876;4.736;2022-09-09T03:07:04;4.65;;;2.38;;
8819;SDS011;4446;50.876;4.736;2022-09-09T03:09:32;4.78;;;2.38;;
8819;SDS011;4446;50.876;4.736;2022-09-09T03:11:59;4.65;;;2.30;;
8819;SDS011;4446;50.876;4.736;2022-09-09T03:14:26;7.05;;;2.70;;
8819;SDS011;4446;50.876;4.736;2022-09-09T03:16:55;9.63;;;2.90;;
8819;SDS011;4446;50.876;4.736;2022-09-09T03:19:23;6.65;;;2.40;;
8819;SDS011;4446;50.876;4.736;2022-09-09T03:21:50;8.23;;;3.15;;
8819;SDS011;4446;50.876;4.736;2022-09-09T03:24:17;5.00;;;2.15;;
8819;SDS011;4446;50.876;4.736;2022-09-09T03:26:44;5.55;;;2.67;;
8819;SDS011;4446;50.876;4.736;2022-09-09T03:29:12;5.93;;;2.65;;
8819;SDS011;4446;50.876;4.736;2022-09-09T03:31:40;6.25;;;2.25;;
8819;SDS011;4446;50.876;4.736;2022-09-09T03:34:09;5.55;;;2.50;;
8819;SDS011;4446;50.876;4.736;2022-09-09T03:36:36;7.03;;;2.80;;
8819;SDS011;4446;50.876;4.736;2022-09-09T03:39:03;8.32;;;2.40;;
8819;SDS011;4446;50.876;4.736;2022-09-09T03:41:31;3.95;;;2.55;;
8819;SDS011;4446;50.876;4.736;2022-09-09T03:43:58;7.00;;;2.80;;
8819;SDS011;4446;50.876;4.736;2022-09-09T03:46:25;6.88;;;2.63;;
8819;SDS011;4446;50.876;4.736;2022-09-09T03:48:52;4.03;;;2.70;;
8819;SDS011;4446;50.876;4.736;2022-09-09T03:51:21;8.52;;;2.90;;
8819;SDS011;4446;50.876;4.736;2022-09-09T03:53:48;9.48;;;2.97;;
8819;SDS011;4446;50.876;4.736;2022-09-09T03:56:15;8.63;;;2.83;;
8819;SDS011;4446;50.876;4.736;2022-09-09T03:58:42;6.28;;;2.30;;
8819;SDS011;4446;50.876;4.736;2022-09-09T04:01:10;7.65;;;2.85;;
8819;SDS011;4446;50.876;4.736;2022-09-09T04:03:39;7.43;;;2.80;;
8819;SDS011;4446;50.876;4.736;2022-09-09T04:06:07;11.05;;;2.80;;
8819;SDS011;4446;50.876;4.736;2022-09-09T04:08:38;6.35;;;2.40;;
8819;SDS011;4446;50.876;4.736;2022-09-09T04:11:06;9.00;;;2.95;;
8819;SDS011;4446;50.876;4.736;2022-09-09T04:13:35;10.70;;;3.13;;
8819;SDS011;4446;50.876;4.736;2022-09-09T04:16:04;7.35;;;2.72;;
8819;SDS011;4446;50.876;4.736;2022-09-09T04:18:31;8.15;;;2.72;;
8819;SDS011;4446;50.876;4.736;2022-09-09T04:20:59;5.97;;;2.78;;
8819;SDS011;4446;50.876;4.736;2022-09-09T04:23:27;7.15;;;2.58;;
8819;SDS011;4446;50.876;4.736;2022-09-09T04:25:57;5.03;;;2.70;;
8819;SDS011;4446;50.876;4.736;2022-09-09T04:28:26;9.35;;;3.05;;
8819;SDS011;4446;50.876;4.736;2022-09-09T04:30:54;6.35;;;2.60;;
8819;SDS011;4446;50.876;4.736;2022-09-09T04:33:23;5.53;;;2.70;;
8819;SDS011;4446;50.876;4.736;2022-09-09T04:35:51;11.63;;;2.97;;
8819;SDS011;4446;50.876;4.736;2022-09-09T04:38:19;5.78;;;2.63;;
8819;SDS011;4446;50.876;4.736;2022-09-09T04:40:47;6.00;;;2.63;;
8819;SDS011;4446;50.876;4.736;2022-09-09T04:43:18;8.20;;;3.28;;
8819;SDS011;4446;50.876;4.736;2022-09-09T04:45:46;6.90;;;3.42;;
8819;SDS011;4446;50.876;4.736;2022-09-09T04:48:14;8.13;;;3.17;;
8819;SDS011;4446;50.876;4.736;2022-09-09T04:50:41;10.02;;;3.45;;
8819;SDS011;4446;50.876;4.736;2022-09-09T04:53:09;7.22;;;3.17;;
8819;SDS011;4446;50.876;4.736;2022-09-09T04:55:36;8.80;;;3.50;;
8819;SDS011;4446;50.876;4.736;2022-09-09T04:58:03;6.25;;;2.90;;
8819;SDS011;4446;50.876;4.736;2022-09-09T05:00:32;7.10;;;3.22;;
8819;SDS011;4446;50.876;4.736;2022-09-09T05:03:01;8.00;;;3.80;;
8819;SDS011;4446;50.876;4.736;2022-09-09T05:05:30;10.15;;;3.35;;
8819;SDS011;4446;50.876;4.736;2022-09-09T05:08:00;9.20;;;3.60;;
8819;SDS011;4446;50.876;4.736;2022-09-09T05:10:28;7.90;;;3.60;;
8819;SDS011;4446;50.876;4.736;2022-09-09T05:12:55;10.20;;;3.70;;
8819;SDS011;4446;50.876;4.736;2022-09-09T05:15:22;7.88;;;3.47;;
8819;SDS011;4446;50.876;4.736;2022-09-09T05:17:51;7.63;;;3.88;;
8819;SDS011;4446;50.876;4.736;2022-09-09T05:20:18;7.50;;;3.80;;
8819;SDS011;4446;50.876;4.736;2022-09-09T05:22:46;10.35;;;3.80;;
8819;SDS011;4446;50.876;4.736;2022-09-09T05:25:14;11.23;;;3.67;;
8819;SDS011;4446;50.876;4.736;2022-09-09T05:27:41;9.93;;;4.20;;
8819;SDS011;4446;50.876;4.736;2022-09-09T05:30:08;10.07;;;3.80;;
8819;SDS011;4446;50.876;4.736;2022-09-09T05:32:36;8.23;;;3.80;;
8819;SDS011;4446;50.876;4.736;2022-09-09T05:35:04;10.40;;;4.70;;
8819;SDS011;4446;50.876;4.736;2022-09-09T05:37:32;9.48;;;3.85;;
8819;SDS011;4446;50.876;4.736;2022-09-09T05:40:00;10.45;;;4.18;;
8819;SDS011;4446;50.876;4.736;2022-09-09T05:42:29;7.85;;;4.05;;
8819;SDS011;4446;50.876;4.736;2022-09-09T05:44:57;10.65;;;4.88;;
8819;SDS011;4446;50.876;4.736;2022-09-09T05:47:24;10.02;;;4.25;;
8819;SDS011;4446;50.876;4.736;2022-09-09T05:49:53;8.77;;;3.53;;
8819;SDS011;4446;50.876;4.736;2022-09-09T05:52:22;9.80;;;4.28;;
8819;SDS011;4446;50.876;4.736;2022-09-09T05:54:50;9.00;;;4.07;;
8819;SDS011;4446;50.876;4.736;2022-09-09T05:57:19;10.73;;;4.00;;
8819;SDS011;4446;50.876;4.736;2022-09-09T05:59:46;8.20;;;3.45;;
8819;SDS011;4446;50.876;4.736;2022-09-09T06:02:13;9.32;;;3.80;;
8819;SDS011;4446;50.876;4.736;2022-09-09T06:04:40;14.93;;;3.90;;
8819;SDS011;4446;50.876;4.736;2022-09-09T06:07:07;6.32;;;3.50;;
8819;SDS011;4446;50.876;4.736;2022-09-09T06:09:35;8.70;;;3.40;;
8819;SDS011;4446;50.876;4.736;2022-09-09T06:12:02;6.20;;;3.40;;
8819;SDS011;4446;50.876;4.736;2022-09-09T06:14:29;9.20;;;3.28;;
8819;SDS011;4446;50.876;4.736;2022-09-09T06:16:57;8.05;;;3.42;;
8819;SDS011;4446;50.876;4.736;2022-09-09T06:19:24;5.68;;;3.08;;
8819;SDS011;4446;50.876;4.736;2022-09-09T06:21:52;6.88;;;2.90;;
8819;SDS011;4446;50.876;4.736;2022-09-09T06:24:19;5.32;;;2.67;;
8819;SDS011;4446;50.876;4.736;2022-09-09T06:26:48;6.13;;;2.58;;
8819;SDS011;4446;50.876;4.736;2022-09-09T06:29:15;5.63;;;2.92;;
8819;SDS011;4446;50.876;4.736;2022-09-09T06:31:42;8.68;;;2.90;;
8819;SDS011;4446;50.876;4.736;2022-09-09T06:34:12;6.75;;;2.75;;
8819;SDS011;4446;50.876;4.736;2022-09-09T06:36:39;12.57;;;3.08;;
8819;SDS011;4446;50.876;4.736;2022-09-09T06:39:06;8.18;;;3.25;;
8819;SDS011;4446;50.876;4.736;2022-09-09T06:41:36;6.25;;;2.65;;
8819;SDS011;4446;50.876;4.736;2022-09-09T06:44:04;8.02;;;2.67;;
8819;SDS011;4446;50.876;4.736;2022-09-09T06:46:31;12.15;;;3.47;;
8819;SDS011;4446;50.876;4.736;2022-09-09T06:48:58;8.75;;;3.50;;
8819;SDS011;4446;50.876;4.736;2022-09-09T06:51:26;8.35;;;3.03;;
8819;SDS011;4446;50.876;4.736;2022-09-09T06:53:55;7.43;;;2.72;;
8819;SDS011;4446;50.876;4.736;2022-09-09T06:56:23;8.65;;;2.70;;
8819;SDS011;4446;50.876;4.736;2022-09-09T06:58:53;7.95;;;2.70;;
8819;SDS011;4446;50.876;4.736;2022-09-09T07:01:23;8.63;;;2.70;;
8819;SDS011;4446;50.876;4.736;2022-09-09T07:03:51;7.18;;;2.72;;
8819;SDS011;4446;50.876;4.736;2022-09-09T07:06:20;6.18;;;2.97;;
8819;SDS011;4446;50.876;4.736;2022-09-09T07:08:49;6.15;;;2.40;;
8819;SDS011;4446;50.876;4.736;2022-09-09T07:11:18;5.32;;;2.30;;
8819;SDS011;4446;50.876;4.736;2022-09-09T07:13:45;7.63;;;2.67;;
8819;SDS011;4446;50.876;4.736;2022-09-09T07:16:13;5.97;;;2.30;;
8819;SDS011;4446;50.876;4.736;2022-09-09T07:18:43;5.30;;;2.40;;
8819;SDS011;4446;50.876;4.736;2022-09-09T07:21:10;5.40;;;2.20;;
8819;SDS011;4446;50.876;4.736;2022-09-09T07:23:39;5.15;;;2.38;;
8819;SDS011;4446;50.876;4.736;2022-09-09T07:26:07;6.07;;;2.42;;
8819;SDS011;4446;50.876;4.736;2022-09-09T07:28:36;5.93;;;2.10;;
8819;SDS011;4446;50.876;4.736;2022-09-09T07:31:04;5.43;;;2.20;;
8819;SDS011;4446;50.876;4.736;2022-09-09T07:33:32;5.68;;;2.38;;
8819;SDS011;4446;50.876;4.736;2022-09-09T07:36:07;6.97;;;2.60;;
8819;SDS011;4446;50.876;4.736;2022-09-09T07:38:39;7.95;;;2.20;;
8819;SDS011;4446;50.876;4.736;2022-09-09T07:41:09;5.43;;;2.00;;
8819;SDS011;4446;50.876;4.736;2022-09-09T07:43:38;5.38;;;2.08;;
8819;SDS011;4446;50.876;4.736;2022-09-09T07:46:06;6.47;;;2.40;;
8819;SDS011;4446;50.876;4.736;2022-09-09T07:48:33;4.75;;;2.10;;
8819;SDS011;4446;50.876;4.736;2022-09-09T07:51:09;7.65;;;2.15;;
8819;SDS011;4446;50.876;4.736;2022-09-09T07:53:41;3.70;;;2.05;;
8819;SDS011;4446;50.876;4.736;2022-09-09T07:56:09;6.90;;;2.45;;
8819;SDS011;4446;50.876;4.736;2022-09-09T07:58:37;9.52;;;2.25;;
8819;SDS011;4446;50.876;4.736;2022-09-09T08:01:07;4.47;;;1.88;;
8819;SDS011;4446;50.876;4.736;2022-09-09T08:03:35;8.27;;;2.33;;
8819;SDS011;4446;50.876;4.736;2022-09-09T08:06:02;4.65;;;2.00;;
8819;SDS011;4446;50.876;4.736;2022-09-09T08:08:33;5.30;;;2.10;;
8819;SDS011;4446;50.876;4.736;2022-09-09T08:11:01;4.78;;;1.98;;
8819;SDS011;4446;50.876;4.736;2022-09-09T08:13:30;4.40;;;1.70;;
8819;SDS011;4446;50.876;4.736;2022-09-09T08:16:03;8.07;;;2.05;;
8819;SDS011;4446;50.876;4.736;2022-09-09T08:18:32;6.10;;;1.88;;
8819;SDS011;4446;50.876;4.736;2022-09-09T08:21:04;5.45;;;2.00;;
8819;SDS011;4446;50.876;4.736;2022-09-09T08:23:35;7.30;;;1.95;;
8819;SDS011;4446;50.876;4.736;2022-09-09T08:26:04;3.63;;;1.80;;
8819;SDS011;4446;50.876;4.736;2022-09-09T08:28:36;3.03;;;1.85;;
8819;SDS011;4446;50.876;4.736;2022-09-09T08:31:05;6.30;;;2.00;;
8819;SDS011;4446;50.876;4.736;2022-09-09T08:33:33;5.55;;;2.10;;
8819;SDS011;4446;50.876;4.736;2022-09-09T08:36:02;5.18;;;1.83;;
8819;SDS011;4446;50.876;4.736;2022-09-09T08:38:29;4.22;;;1.95;;
8819;SDS011;4446;50.876;4.736;2022-09-09T08:40:58;4.05;;;1.92;;
8819;SDS011;4446;50.876;4.736;2022-09-09T08:43:35;6.43;;;2.10;;
8819;SDS011;4446;50.876;4.736;2022-09-09T08:46:04;3.53;;;1.58;;
8819;SDS011;4446;50.876;4.736;2022-09-09T08:48:39;5.07;;;1.90;;
8819;SDS011;4446;50.876;4.736;2022-09-09T08:51:17;5.18;;;2.00;;
8819;SDS011;4446;50.876;4.736;2022-09-09T08:53:46;7.00;;;2.22;;
8819;SDS011;4446;50.876;4.736;2022-09-09T08:56:21;5.50;;;2.40;;
8819;SDS011;4446;50.876;4.736;2022-09-09T08:58:50;4.30;;;2.00;;
8819;SDS011;4446;50.876;4.736;2022-09-09T09:01:23;4.85;;;2.13;;
8819;SDS011;4446;50.876;4.736;2022-09-09T09:04:02;5.07;;;2.30;;
8819;SDS011;4446;50.876;4.736;2022-09-09T09:06:37;7.28;;;2.35;;
8819;SDS011;4446;50.876;4.736;2022-09-09T09:09:19;4.40;;;2.08;;
8819;SDS011;4446;50.876;4.736;2022-09-09T09:11:53;4.47;;;2.10;;
8819;SDS011;4446;50.876;4.736;2022-09-09T09:14:26;4.82;;;2.42;;
8819;SDS011;4446;50.876;4.736;2022-09-09T09:16:56;5.03;;;2.42;;
8819;SDS011;4446;50.876;4.736;2022-09-09T09:19:25;6.75;;;2.40;;
8819;SDS011;4446;50.876;4.736;2022-09-09T09:21:54;10.07;;;3.10;;
8819;SDS011;4446;50.876;4.736;2022-09-09T09:24:30;6.63;;;2.90;;
8819;SDS011;4446;50.876;4.736;2022-09-09T09:27:10;6.65;;;2.72;;
8819;SDS011;4446;50.876;4.736;2022-09-09T09:29:39;7.25;;;2.47;;
8819;SDS011;4446;50.876;4.736;2022-09-09T09:32:10;4.40;;;2.30;;
8819;SDS011;4446;50.876;4.736;2022-09-09T09:34:39;4.45;;;2.50;;
8819;SDS011;4446;50.876;4.736;2022-09-09T09:37:07;4.40;;;2.55;;
8819;SDS011;4446;50.876;4.736;2022-09-09T09:39:43;6.15;;;2.55;;
8819;SDS011;4446;50.876;4.736;2022-09-09T09:42:12;9.20;;;2.90;;
8819;SDS011;4446;50.876;4.736;2022-09-09T09:44:42;6.32;;;2.65;;
8819;SDS011;4446;50.876;4.736;2022-09-09T09:47:10;6.05;;;2.70;;
8819;SDS011;4446;50.876;4.736;2022-09-09T09:49:39;8.05;;;2.92;;
8819;SDS011;4446;50.876;4.736;2022-09-09T09:52:20;7.35;;;2.83;;
8819;SDS011;4446;50.876;4.736;2022-09-09T09:54:49;7.45;;;3.00;;
8819;SDS011;4446;50.876;4.736;2022-09-09T09:57:18;8.23;;;3.35;;
8819;SDS011;4446;50.876;4.736;2022-09-09T10:00:00;6.60;;;3.15;;
8819;SDS011;4446;50.876;4.736;2022-09-09T10:02:31;6.50;;;2.80;;
8819;SDS011;4446;50.876;4.736;2022-09-09T10:05:04;5.97;;;2.65;;
8819;SDS011;4446;50.876;4.736;2022-09-09T10:07:33;6.63;;;2.97;;
8819;SDS011;4446;50.876;4.736;2022-09-09T10:10:02;6.20;;;2.95;;
8819;SDS011;4446;50.876;4.736;2022-09-09T10:12:35;6.28;;;2.80;;
8819;SDS011;4446;50.876;4.736;2022-09-09T10:15:15;7.07;;;2.80;;
8819;SDS011;4446;50.876;4.736;2022-09-09T10:17:57;5.82;;;2.83;;
8819;SDS011;4446;50.876;4.736;2022-09-09T10:20:34;5.53;;;2.58;;
8819;SDS011;4446;50.876;4.736;2022-09-09T10:23:09;5.60;;;2.65;;
8819;SDS011;4446;50.876;4.736;2022-09-09T10:25:51;8.57;;;3.05;;
8819;SDS011;4446;50.876;4.736;2022-09-09T10:31:43;5.65;;;2.95;;
8819;SDS011;4446;50.876;4.736;2022-09-09T10:34:21;5.85;;;3.15;;
8819;SDS011;4446;50.876;4.736;2022-09-09T10:37:03;7.10;;;3.00;;
8819;SDS011;4446;50.876;4.736;2022-09-09T10:39:44;7.30;;;2.70;;
8819;SDS011;4446;50.876;4.736;2022-09-09T10:42:12;5.97;;;2.88;;
8819;SDS011;4446;50.876;4.736;2022-09-09T10:44:53;7.18;;;2.80;;
8819;SDS011;4446;50.876;4.736;2022-09-09T10:47:36;6.68;;;2.85;;
8819;SDS011;4446;50.876;4.736;2022-09-09T10:50:21;5.78;;;3.20;;
8819;SDS011;4446;50.876;4.736;2022-09-09T10:52:59;5.10;;;3.00;;
8819;SDS011;4446;50.876;4.736;2022-09-09T10:55:35;5.20;;;2.97;;
8819;SDS011;4446;50.876;4.736;2022-09-09T10:58:05;4.85;;;2.88;;
8819;SDS011;4446;50.876;4.736;2022-09-09T11:00:37;5.85;;;2.83;;
8819;SDS011;4446;50.876;4.736;2022-09-09T11:03:11;7.00;;;2.83;;
8819;SDS011;4446;50.876;4.736;2022-09-09T11:05:45;9.63;;;3.45;;
8819;SDS011;4446;50.876;4.736;2022-09-09T11:08:17;6.93;;;3.15;;
8819;SDS011;4446;50.876;4.736;2022-09-09T11:10:48;4.97;;;3.15;;
8819;SDS011;4446;50.876;4.736;2022-09-09T11:13:22;8.25;;;3.00;;
8819;SDS011;4446;50.876;4.736;2022-09-09T11:15:54;9.65;;;3.28;;
8819;SDS011;4446;50.876;4.736;2022-09-09T11:18:29;7.38;;;2.90;;
8819;SDS011;4446;50.876;4.736;2022-09-09T11:21:04;7.13;;;2.60;;
8819;SDS011;4446;50.876;4.736;2022-09-09T11:23:38;6.63;;;2.95;;
8819;SDS011;4446;50.876;4.736;2022-09-09T11:26:07;5.50;;;2.70;;
8819;SDS011;4446;50.876;4.736;2022-09-09T11:28:45;6.90;;;2.70;;
8819;SDS011;4446;50.876;4.736;2022-09-09T11:31:30;6.88;;;2.45;;
8819;SDS011;4446;50.876;4.736;2022-09-09T11:34:12;5.50;;;2.58;;
8819;SDS011;4446;50.876;4.736;2022-09-09T11:36:54;7.07;;;2.38;;
8819;SDS011;4446;50.876;4.736;2022-09-09T11:39:38;8.32;;;2.75;;
8819;SDS011;4446;50.876;4.736;2022-09-09T11:42:23;5.63;;;2.40;;
8819;SDS011;4446;50.876;4.736;2022-09-09T11:44:51;5.53;;;2.50;;
8819;SDS011;4446;50.876;4.736;2022-09-09T11:47:20;5.40;;;2.03;;
8819;SDS011;4446;50.876;4.736;2022-09-09T11:50:06;3.83;;;2.10;;
8819;SDS011;4446;50.876;4.736;2022-09-09T11:52:36;4.75;;;2.20;;
8819;SDS011;4446;50.876;4.736;2022-09-09T11:55:08;6.65;;;2.13;;
8819;SDS011;4446;50.876;4.736;2022-09-09T11:57:37;4.03;;;1.83;;
8819;SDS011;4446;50.876;4.736;2022-09-09T12:00:05;3.72;;;1.73;;
8819;SDS011;4446;50.876;4.736;2022-09-09T12:02:34;4.07;;;1.95;;
8819;SDS011;4446;50.876;4.736;2022-09-09T12:05:04;4.07;;;1.80;;
8819;SDS011;4446;50.876;4.736;2022-09-09T12:07:34;4.40;;;1.90;;
8819;SDS011;4446;50.876;4.736;2022-09-09T12:10:04;4.63;;;2.03;;
8819;SDS011;4446;50.876;4.736;2022-09-09T12:12:48;5.63;;;2.10;;
8819;SDS011;4446;50.876;4.736;2022-09-09T12:15:23;4.50;;;1.90;;
8819;SDS011;4446;50.876;4.736;2022-09-09T12:17:54;3.17;;;1.70;;
8819;SDS011;4446;50.876;4.736;2022-09-09T12:20:26;6.10;;;2.22;;
8819;SDS011;4446;50.876;4.736;2022-09-09T12:23:02;3.90;;;2.00;;
8819;SDS011;4446;50.876;4.736;2022-09-09T12:25:47;3.17;;;1.90;;
8819;SDS011;4446;50.876;4.736;2022-09-09T12:28:22;3.20;;;1.58;;
8819;SDS011;4446;50.876;4.736;2022-09-09T12:30:55;4.53;;;1.80;;
8819;SDS011;4446;50.876;4.736;2022-09-09T12:33:33;3.53;;;1.70;;
8819;SDS011;4446;50.876;4.736;2022-09-09T12:36:02;2.53;;;1.60;;
8819;SDS011;4446;50.876;4.736;2022-09-09T12:38:32;4.65;;;1.85;;
8819;SDS011;4446;50.876;4.736;2022-09-09T12:41:02;4.00;;;1.60;;
8819;SDS011;4446;50.876;4.736;2022-09-09T12:43:30;3.72;;;1.70;;
8819;SDS011;4446;50.876;4.736;2022-09-09T12:45:58;3.40;;;1.60;;
8819;SDS011;4446;50.876;4.736;2022-09-09T12:48:29;3.10;;;1.52;;
8819;SDS011;4446;50.876;4.736;2022-09-09T12:50:59;3.97;;;1.63;;
8819;SDS011;4446;50.876;4.736;2022-09-09T12:53:30;2.30;;;1.60;;
8819;SDS011;4446;50.876;4.736;2022-09-09T12:56:00;3.15;;;1.60;;
8819;SDS011;4446;50.876;4.736;2022-09-09T12:58:31;4.55;;;1.67;;
8819;SDS011;4446;50.876;4.736;2022-09-09T13:01:00;3.60;;;1.70;;
8819;SDS011;4446;50.876;4.736;2022-09-09T13:03:29;3.78;;;1.60;;
8819;SDS011;4446;50.876;4.736;2022-09-09T13:05:57;3.08;;;1.60;;
8819;SDS011;4446;50.876;4.736;2022-09-09T13:08:27;2.58;;;1.45;;
8819;SDS011;4446;50.876;4.736;2022-09-09T13:10:56;3.80;;;1.67;;
8819;SDS011;4446;50.876;4.736;2022-09-09T13:13:28;5.32;;;2.03;;
8819;SDS011;4446;50.876;4.736;2022-09-09T13:16:00;3.75;;;1.65;;
8819;SDS011;4446;50.876;4.736;2022-09-09T13:18:29;3.33;;;1.65;;
8819;SDS011;4446;50.876;4.736;2022-09-09T13:20:59;3.00;;;1.55;;
8819;SDS011;4446;50.876;4.736;2022-09-09T13:23:29;3.97;;;1.60;;
8819;SDS011;4446;50.876;4.736;2022-09-09T13:25:58;3.65;;;1.50;;
8819;SDS011;4446;50.876;4.736;2022-09-09T13:28:28;2.60;;;1.50;;
8819;SDS011;4446;50.876;4.736;2022-09-09T13:30:56;3.20;;;1.38;;
8819;SDS011;4446;50.876;4.736;2022-09-09T13:33:29;3.53;;;1.50;;
8819;SDS011;4446;50.876;4.736;2022-09-09T13:35:58;2.65;;;1.55;;
8819;SDS011;4446;50.876;4.736;2022-09-09T13:38:30;2.22;;;1.25;;
8819;SDS011;4446;50.876;4.736;2022-09-09T13:41:00;3.10;;;1.58;;
8819;SDS011;4446;50.876;4.736;2022-09-09T13:43:29;3.08;;;1.60;;
8819;SDS011;4446;50.876;4.736;2022-09-09T13:46:00;2.53;;;1.60;;
8819;SDS011;4446;50.876;4.736;2022-09-09T13:48:28;2.42;;;1.38;;
8819;SDS011;4446;50.876;4.736;2022-09-09T13:50:57;6.03;;;1.60;;
8819;SDS011;4446;50.876;4.736;2022-09-09T13:53:26;3.05;;;1.45;;
8819;SDS011;4446;50.876;4.736;2022-09-09T13:55:57;2.70;;;1.40;;
8819;SDS011;4446;50.876;4.736;2022-09-09T13:58:24;3.25;;;1.75;;
8819;SDS011;4446;50.876;4.736;2022-09-09T14:00:52;1.88;;;1.60;;
8819;SDS011;4446;50.876;4.736;2022-09-09T14:03:19;4.22;;;1.60;;
8819;SDS011;4446;50.876;4.736;2022-09-09T14:05:47;3.40;;;1.50;;
8819;SDS011;4446;50.876;4.736;2022-09-09T14:08:22;2.15;;;1.23;;
8819;SDS011;4446;50.876;4.736;2022-09-09T14:10:51;2.90;;;1.45;;
8819;SDS011;4446;50.876;4.736;2022-09-09T14:13:19;3.50;;;1.40;;
8819;SDS011;4446;50.876;4.736;2022-09-09T14:15:48;2.53;;;1.13;;
8819;SDS011;4446;50.876;4.736;2022-09-09T14:18:15;1.63;;;1.40;;
8819;SDS011;4446;50.876;4.736;2022-09-09T14:20:44;3.10;;;1.30;;
8819;SDS011;4446;50.876;4.736;2022-09-09T14:23:11;2.92;;;1.30;;
8819;SDS011;4446;50.876;4.736;2022-09-09T14:25:40;2.65;;;1.40;;
8819;SDS011;4446;50.876;4.736;2022-09-09T14:28:08;3.30;;;1.55;;
8819;SDS011;4446;50.876;4.736;2022-09-09T14:30:38;3.22;;;1.52;;
8819;SDS011;4446;50.876;4.736;2022-09-09T14:33:06;2.22;;;1.45;;
8819;SDS011;4446;50.876;4.736;2022-09-09T14:35:34;3.60;;;1.55;;
8819;SDS011;4446;50.876;4.736;2022-09-09T14:38:02;2.83;;;1.48;;
8819;SDS011;4446;50.876;4.736;2022-09-09T14:40:30;2.28;;;1.30;;
8819;SDS011;4446;50.876;4.736;2022-09-09T14:42:57;2.85;;;1.75;;
8819;SDS011;4446;50.876;4.736;2022-09-09T14:45:25;2.42;;;1.40;;
8819;SDS011;4446;50.876;4.736;2022-09-09T14:47:54;2.55;;;1.48;;
8819;SDS011;4446;50.876;4.736;2022-09-09T14:50:22;3.13;;;1.60;;
8819;SDS011;4446;50.876;4.736;2022-09-09T14:52:49;2.30;;;1.52;;
8819;SDS011;4446;50.876;4.736;2022-09-09T14:55:16;2.67;;;1.50;;
8819;SDS011;4446;50.876;4.736;2022-09-09T14:57:44;1.80;;;1.40;;
8819;SDS011;4446;50.876;4.736;2022-09-09T15:00:12;3.17;;;1.50;;
8819;SDS011;4446;50.876;4.736;2022-09-09T15:02:40;4.88;;;1.63;;
8819;SDS011;4446;50.876;4.736;2022-09-09T15:05:08;3.08;;;1.60;;
8819;SDS011;4446;50.876;4.736;2022-09-09T15:07:36;3.28;;;1.67;;
8819;SDS011;4446;50.876;4.736;2022-09-09T15:10:03;1.77;;;1.50;;
8819;SDS011;4446;50.876;4.736;2022-09-09T15:12:31;3.58;;;1.55;;
8819;SDS011;4446;50.876;4.736;2022-09-09T15:15:00;3.85;;;1.40;;
8819;SDS011;4446;50.876;4.736;2022-09-09T15:17:28;3.33;;;1.50;;
8819;SDS011;4446;50.876;4.736;2022-09-09T15:19:55;4.45;;;1.70;;
8819;SDS011;4446;50.876;4.736;2022-09-09T15:22:23;2.42;;;1.48;;
8819;SDS011;4446;50.876;4.736;2022-09-09T15:24:51;2.20;;;1.65;;
8819;SDS011;4446;50.876;4.736;2022-09-09T15:27:18;2.75;;;1.58;;
8819;SDS011;4446;50.876;4.736;2022-09-09T15:29:45;2.58;;;1.50;;
8819;SDS011;4446;50.876;4.736;2022-09-09T15:32:12;3.42;;;1.40;;
8819;SDS011;4446;50.876;4.736;2022-09-09T15:34:39;2.08;;;1.40;;
8819;SDS011;4446;50.876;4.736;2022-09-09T15:37:09;3.05;;;1.50;;
8819;SDS011;4446;50.876;4.736;2022-09-09T15:39:39;2.15;;;1.45;;